sensor_id;sensor_type;location;lat;lon;timestamp;P1;durP1;ratioP1;P2;durP2;ratioP2
16330;SDS011;8275;48.206;16.340;2024-01-10T00:00:03;34.70;;;25.73;;
16330;SDS011;8275;48.206;16.340;2024-01-10T00:02:36;42.50;;;28.00;;
16330;SDS011;8275;48.206;16.340;2024-01-10T00:05:05;37.43;;;25.77;;
16330;SDS011;8275;48.206;16.340;2024-01-10T00:07:36;35.13;;;23.13;;
16330;SDS011;8275;48.206;16.340;2024-01-10T00:10:05;42.27;;;26.17;;
16330;SDS011;8275;48.206;16.340;2024-01-10T00:12:34;30.63;;;23.50;;
16330;SDS011;8275;48.206;16.340;2024-01-10T00:15:04;33.83;;;26.27;;
16330;SDS011;8275;48.206;16.340;2024-01-10T00:17:34;36.97;;;23.63;;
16330;SDS011;8275;48.206;16.340;2024-01-10T00:20:02;33.87;;;25.27;;
16330;SDS011;8275;48.206;16.340;2024-01-10T00:22:33;31.37;;;27.00;;
16330;SDS011;8275;48.206;16.340;2024-01-10T00:25:02;37.03;;;26.90;;
16330;SDS011;8275;48.206;16.340;2024-01-10T00:27:31;48.97;;;25.03;;
16330;SDS011;8275;48.206;16.340;2024-01-10T00:30:00;32.73;;;25.97;;
16330;SDS011;8275;48.206;16.340;2024-01-10T00:32:29;39.93;;;26.30;;
16330;SDS011;8275;48.206;16.340;2024-01-10T00:34:58;37.47;;;25.27;;
16330;SDS011;8275;48.206;16.340;2024-01-10T00:37:27;37.43;;;25.83;;
16330;SDS011;8275;48.206;16.340;2024-01-10T00:39:56;60.83;;;27.47;;
16330;SDS011;8275;48.206;16.340;2024-01-10T00:42:25;41.77;;;27.00;;
16330;SDS011;8275;48.206;16.340;2024-01-10T00:44:53;42.10;;;28.10;;
16330;SDS011;8275;48.206;16.340;2024-01-10T00:47:22;40.93;;;28.40;;
16330;SDS011;8275;48.206;16.340;2024-01-10T00:49:50;38.60;;;26.97;;
16330;SDS011;8275;48.206;16.340;2024-01-10T00:52:19;32.13;;;25.27;;
16330;SDS011;8275;48.206;16.340;2024-01-10T00:54:51;44.87;;;28.83;;
16330;SDS011;8275;48.206;16.340;2024-01-10T00:57:23;35.50;;;26.33;;
16330;SDS011;8275;48.206;16.340;2024-01-10T00:59:54;46.97;;;29.83;;
16330;SDS011;8275;48.206;16.340;2024-01-10T01:02:25;37.47;;;26.40;;
16330;SDS011;8275;48.206;16.340;2024-01-10T01:04:56;37.03;;;27.70;;
16330;SDS011;8275;48.206;16.340;2024-01-10T01:07:28;36.90;;;26.27;;
16330;SDS011;8275;48.206;16.340;2024-01-10T01:09:59;47.30;;;28.67;;
16330;SDS011;8275;48.206;16.340;2024-01-10T01:12:32;40.63;;;26.37;;
16330;SDS011;8275;48.206;16.340;2024-01-10T01:15:02;38.43;;;27.27;;
16330;SDS011;8275;48.206;16.340;2024-01-10T01:17:34;40.00;;;28.60;;
16330;SDS011;8275;48.206;16.340;2024-01-10T01:20:05;35.43;;;26.63;;
16330;SDS011;8275;48.206;16.340;2024-01-10T01:22:37;37.37;;;29.13;;
16330;SDS011;8275;48.206;16.340;2024-01-10T01:25:09;38.13;;;26.27;;
16330;SDS011;8275;48.206;16.340;2024-01-10T01:27:39;35.80;;;27.73;;
16330;SDS011;8275;48.206;16.340;2024-01-10T01:30:07;40.40;;;28.10;;
16330;SDS011;8275;48.206;16.340;2024-01-10T01:32:38;42.20;;;29.80;;
16330;SDS011;8275;48.206;16.340;2024-01-10T01:35:07;34.70;;;25.90;;
16330;SDS011;8275;48.206;16.340;2024-01-10T01:37:37;44.77;;;31.13;;
16330;SDS011;8275;48.206;16.340;2024-01-10T01:40:08;32.63;;;27.97;;
16330;SDS011;8275;48.206;16.340;2024-01-10T01:42:42;40.20;;;27.87;;
16330;SDS011;8275;48.206;16.340;2024-01-10T01:45:15;39.50;;;28.97;;
16330;SDS011;8275;48.206;16.340;2024-01-10T01:47:45;46.17;;;30.17;;
16330;SDS011;8275;48.206;16.340;2024-01-10T01:50:15;34.70;;;26.30;;
16330;SDS011;8275;48.206;16.340;2024-01-10T01:52:46;39.40;;;30.50;;
16330;SDS011;8275;48.206;16.340;2024-01-10T01:55:18;50.83;;;31.63;;
16330;SDS011;8275;48.206;16.340;2024-01-10T01:57:50;44.13;;;28.40;;
16330;SDS011;8275;48.206;16.340;2024-01-10T02:00:23;45.70;;;30.20;;
16330;SDS011;8275;48.206;16.340;2024-01-10T02:02:52;42.77;;;29.63;;
16330;SDS011;8275;48.206;16.340;2024-01-10T02:05:21;40.83;;;27.43;;
16330;SDS011;8275;48.206;16.340;2024-01-10T02:07:50;38.60;;;29.17;;
16330;SDS011;8275;48.206;16.340;2024-01-10T02:10:19;40.70;;;28.27;;
16330;SDS011;8275;48.206;16.340;2024-01-10T02:12:47;39.43;;;29.47;;
16330;SDS011;8275;48.206;16.340;2024-01-10T02:15:17;41.07;;;27.90;;
16330;SDS011;8275;48.206;16.340;2024-01-10T02:17:46;41.40;;;28.50;;
16330;SDS011;8275;48.206;16.340;2024-01-10T02:20:15;37.33;;;27.27;;
16330;SDS011;8275;48.206;16.340;2024-01-10T02:22:44;36.07;;;27.47;;
16330;SDS011;8275;48.206;16.340;2024-01-10T02:25:14;42.80;;;31.77;;
16330;SDS011;8275;48.206;16.340;2024-01-10T02:27:43;41.83;;;29.30;;
16330;SDS011;8275;48.206;16.340;2024-01-10T02:30:11;39.40;;;30.53;;
16330;SDS011;8275;48.206;16.340;2024-01-10T02:32:40;40.63;;;31.97;;
16330;SDS011;8275;48.206;16.340;2024-01-10T02:35:09;44.97;;;31.37;;
16330;SDS011;8275;48.206;16.340;2024-01-10T02:37:38;39.73;;;30.27;;
16330;SDS011;8275;48.206;16.340;2024-01-10T02:40:07;48.23;;;31.93;;
16330;SDS011;8275;48.206;16.340;2024-01-10T02:42:38;41.80;;;30.63;;
16330;SDS011;8275;48.206;16.340;2024-01-10T02:45:07;33.77;;;26.10;;
16330;SDS011;8275;48.206;16.340;2024-01-10T02:47:36;43.67;;;30.93;;
16330;SDS011;8275;48.206;16.340;2024-01-10T02:50:05;45.00;;;30.40;;
16330;SDS011;8275;48.206;16.340;2024-01-10T02:52:34;47.10;;;32.67;;
16330;SDS011;8275;48.206;16.340;2024-01-10T02:55:03;44.80;;;30.10;;
16330;SDS011;8275;48.206;16.340;2024-01-10T02:57:35;56.90;;;35.10;;
16330;SDS011;8275;48.206;16.340;2024-01-10T03:00:06;43.90;;;30.40;;
16330;SDS011;8275;48.206;16.340;2024-01-10T03:02:36;49.73;;;33.70;;
16330;SDS011;8275;48.206;16.340;2024-01-10T03:05:05;46.97;;;32.50;;
16330;SDS011;8275;48.206;16.340;2024-01-10T03:07:34;42.60;;;30.37;;
16330;SDS011;8275;48.206;16.340;2024-01-10T03:10:02;46.77;;;30.90;;
16330;SDS011;8275;48.206;16.340;2024-01-10T03:12:32;42.80;;;30.53;;
16330;SDS011;8275;48.206;16.340;2024-01-10T03:15:05;41.67;;;32.20;;
16330;SDS011;8275;48.206;16.340;2024-01-10T03:17:34;43.57;;;31.37;;
16330;SDS011;8275;48.206;16.340;2024-01-10T03:20:03;42.50;;;32.27;;
16330;SDS011;8275;48.206;16.340;2024-01-10T03:22:35;45.67;;;30.60;;
16330;SDS011;8275;48.206;16.340;2024-01-10T03:25:04;46.57;;;30.40;;
16330;SDS011;8275;48.206;16.340;2024-01-10T03:27:33;39.47;;;29.47;;
16330;SDS011;8275;48.206;16.340;2024-01-10T03:30:05;43.00;;;31.47;;
16330;SDS011;8275;48.206;16.340;2024-01-10T03:32:35;41.17;;;30.17;;
16330;SDS011;8275;48.206;16.340;2024-01-10T03:35:04;54.00;;;31.83;;
16330;SDS011;8275;48.206;16.340;2024-01-10T03:37:35;47.00;;;33.70;;
16330;SDS011;8275;48.206;16.340;2024-01-10T03:40:03;42.90;;;32.30;;
16330;SDS011;8275;48.206;16.340;2024-01-10T03:42:33;53.53;;;32.57;;
16330;SDS011;8275;48.206;16.340;2024-01-10T03:45:02;49.47;;;33.37;;
16330;SDS011;8275;48.206;16.340;2024-01-10T03:47:33;52.50;;;33.13;;
16330;SDS011;8275;48.206;16.340;2024-01-10T03:50:02;43.90;;;31.63;;
16330;SDS011;8275;48.206;16.340;2024-01-10T03:52:31;42.00;;;30.77;;
16330;SDS011;8275;48.206;16.340;2024-01-10T03:54:59;44.73;;;31.87;;
16330;SDS011;8275;48.206;16.340;2024-01-10T03:57:28;49.70;;;35.77;;
16330;SDS011;8275;48.206;16.340;2024-01-10T03:59:56;45.27;;;35.10;;
16330;SDS011;8275;48.206;16.340;2024-01-10T04:02:26;45.40;;;32.03;;
16330;SDS011;8275;48.206;16.340;2024-01-10T04:04:55;45.47;;;30.80;;
16330;SDS011;8275;48.206;16.340;2024-01-10T04:07:25;53.90;;;33.43;;
16330;SDS011;8275;48.206;16.340;2024-01-10T04:09:55;44.73;;;33.23;;
16330;SDS011;8275;48.206;16.340;2024-01-10T04:12:23;48.67;;;31.43;;
16330;SDS011;8275;48.206;16.340;2024-01-10T04:14:51;46.17;;;34.20;;
16330;SDS011;8275;48.206;16.340;2024-01-10T04:17:20;46.63;;;35.27;;
16330;SDS011;8275;48.206;16.340;2024-01-10T04:19:50;46.43;;;31.83;;
16330;SDS011;8275;48.206;16.340;2024-01-10T04:22:18;50.63;;;33.30;;
16330;SDS011;8275;48.206;16.340;2024-01-10T04:24:47;57.73;;;35.27;;
16330;SDS011;8275;48.206;16.340;2024-01-10T04:27:16;46.00;;;30.30;;
16330;SDS011;8275;48.206;16.340;2024-01-10T04:29:45;66.87;;;38.20;;
16330;SDS011;8275;48.206;16.340;2024-01-10T04:32:14;40.03;;;31.57;;
16330;SDS011;8275;48.206;16.340;2024-01-10T04:34:42;42.63;;;33.33;;
16330;SDS011;8275;48.206;16.340;2024-01-10T04:37:12;52.50;;;38.47;;
16330;SDS011;8275;48.206;16.340;2024-01-10T04:39:41;45.43;;;32.47;;
16330;SDS011;8275;48.206;16.340;2024-01-10T04:42:10;50.30;;;32.87;;
16330;SDS011;8275;48.206;16.340;2024-01-10T04:44:38;49.33;;;34.17;;
16330;SDS011;8275;48.206;16.340;2024-01-10T04:47:07;47.50;;;30.03;;
16330;SDS011;8275;48.206;16.340;2024-01-10T04:49:36;51.07;;;33.43;;
16330;SDS011;8275;48.206;16.340;2024-01-10T04:52:04;47.10;;;33.20;;
16330;SDS011;8275;48.206;16.340;2024-01-10T04:54:36;47.60;;;32.80;;
16330;SDS011;8275;48.206;16.340;2024-01-10T04:57:04;55.57;;;35.17;;
16330;SDS011;8275;48.206;16.340;2024-01-10T04:59:33;44.53;;;30.33;;
16330;SDS011;8275;48.206;16.340;2024-01-10T05:02:02;46.93;;;32.17;;
16330;SDS011;8275;48.206;16.340;2024-01-10T05:04:30;42.83;;;31.10;;
16330;SDS011;8275;48.206;16.340;2024-01-10T05:06:59;50.67;;;32.53;;
16330;SDS011;8275;48.206;16.340;2024-01-10T05:09:27;42.97;;;32.80;;
16330;SDS011;8275;48.206;16.340;2024-01-10T05:11:57;44.27;;;30.87;;
16330;SDS011;8275;48.206;16.340;2024-01-10T05:14:26;43.63;;;32.43;;
16330;SDS011;8275;48.206;16.340;2024-01-10T05:16:54;44.40;;;31.33;;
16330;SDS011;8275;48.206;16.340;2024-01-10T05:19:23;43.17;;;30.97;;
16330;SDS011;8275;48.206;16.340;2024-01-10T05:21:52;42.47;;;31.13;;
16330;SDS011;8275;48.206;16.340;2024-01-10T05:24:21;42.37;;;32.03;;
16330;SDS011;8275;48.206;16.340;2024-01-10T05:26:49;42.70;;;31.67;;
16330;SDS011;8275;48.206;16.340;2024-01-10T05:29:20;38.10;;;29.27;;
16330;SDS011;8275;48.206;16.340;2024-01-10T05:31:51;62.20;;;34.37;;
16330;SDS011;8275;48.206;16.340;2024-01-10T05:34:19;46.50;;;28.97;;
16330;SDS011;8275;48.206;16.340;2024-01-10T05:36:48;52.77;;;29.67;;
16330;SDS011;8275;48.206;16.340;2024-01-10T05:39:16;41.30;;;29.93;;
16330;SDS011;8275;48.206;16.340;2024-01-10T05:41:47;45.40;;;30.97;;
16330;SDS011;8275;48.206;16.340;2024-01-10T05:44:17;46.30;;;32.77;;
16330;SDS011;8275;48.206;16.340;2024-01-10T05:46:47;46.57;;;29.40;;
16330;SDS011;8275;48.206;16.340;2024-01-10T05:49:15;49.73;;;32.97;;
16330;SDS011;8275;48.206;16.340;2024-01-10T05:51:43;43.80;;;32.30;;
16330;SDS011;8275;48.206;16.340;2024-01-10T05:54:12;49.47;;;30.50;;
16330;SDS011;8275;48.206;16.340;2024-01-10T05:56:42;44.53;;;30.03;;
16330;SDS011;8275;48.206;16.340;2024-01-10T05:59:10;45.87;;;29.97;;
16330;SDS011;8275;48.206;16.340;2024-01-10T06:01:39;52.53;;;30.60;;
16330;SDS011;8275;48.206;16.340;2024-01-10T06:04:09;44.87;;;30.17;;
16330;SDS011;8275;48.206;16.340;2024-01-10T06:06:37;48.97;;;29.77;;
16330;SDS011;8275;48.206;16.340;2024-01-10T06:09:06;50.13;;;30.47;;
16330;SDS011;8275;48.206;16.340;2024-01-10T06:11:40;41.37;;;28.90;;
16330;SDS011;8275;48.206;16.340;2024-01-10T06:14:09;49.70;;;33.43;;
16330;SDS011;8275;48.206;16.340;2024-01-10T06:16:37;41.73;;;31.07;;
16330;SDS011;8275;48.206;16.340;2024-01-10T06:19:06;41.50;;;28.50;;
16330;SDS011;8275;48.206;16.340;2024-01-10T06:21:36;42.27;;;30.23;;
16330;SDS011;8275;48.206;16.340;2024-01-10T06:24:04;36.83;;;27.57;;
16330;SDS011;8275;48.206;16.340;2024-01-10T06:26:34;47.33;;;30.80;;
16330;SDS011;8275;48.206;16.340;2024-01-10T06:29:03;40.73;;;30.67;;
16330;SDS011;8275;48.206;16.340;2024-01-10T06:31:31;43.90;;;32.30;;
16330;SDS011;8275;48.206;16.340;2024-01-10T06:34:00;41.80;;;32.07;;
16330;SDS011;8275;48.206;16.340;2024-01-10T06:36:28;41.40;;;29.23;;
16330;SDS011;8275;48.206;16.340;2024-01-10T06:38:58;40.97;;;30.00;;
16330;SDS011;8275;48.206;16.340;2024-01-10T06:41:27;45.43;;;29.37;;
16330;SDS011;8275;48.206;16.340;2024-01-10T06:43:56;38.80;;;30.60;;
16330;SDS011;8275;48.206;16.340;2024-01-10T06:46:24;47.30;;;31.00;;
16330;SDS011;8275;48.206;16.340;2024-01-10T06:48:53;53.53;;;30.03;;
16330;SDS011;8275;48.206;16.340;2024-01-10T06:51:21;39.73;;;30.83;;
16330;SDS011;8275;48.206;16.340;2024-01-10T06:53:50;47.53;;;31.93;;
16330;SDS011;8275;48.206;16.340;2024-01-10T06:56:20;48.60;;;31.47;;
16330;SDS011;8275;48.206;16.340;2024-01-10T06:58:48;45.67;;;33.20;;
16330;SDS011;8275;48.206;16.340;2024-01-10T07:01:16;41.60;;;28.20;;
16330;SDS011;8275;48.206;16.340;2024-01-10T07:03:45;37.50;;;27.70;;
16330;SDS011;8275;48.206;16.340;2024-01-10T07:06:14;41.17;;;29.03;;
16330;SDS011;8275;48.206;16.340;2024-01-10T07:08:42;48.47;;;30.47;;
16330;SDS011;8275;48.206;16.340;2024-01-10T07:11:12;45.90;;;33.47;;
16330;SDS011;8275;48.206;16.340;2024-01-10T07:13:41;40.97;;;29.93;;
16330;SDS011;8275;48.206;16.340;2024-01-10T07:16:10;44.43;;;28.60;;
16330;SDS011;8275;48.206;16.340;2024-01-10T07:18:41;45.13;;;30.30;;
16330;SDS011;8275;48.206;16.340;2024-01-10T07:21:11;46.17;;;30.60;;
16330;SDS011;8275;48.206;16.340;2024-01-10T07:23:39;37.27;;;28.20;;
16330;SDS011;8275;48.206;16.340;2024-01-10T07:26:09;39.90;;;28.17;;
16330;SDS011;8275;48.206;16.340;2024-01-10T07:28:44;41.77;;;29.30;;
16330;SDS011;8275;48.206;16.340;2024-01-10T07:31:13;41.13;;;31.60;;
16330;SDS011;8275;48.206;16.340;2024-01-10T07:33:42;43.40;;;29.13;;
16330;SDS011;8275;48.206;16.340;2024-01-10T07:36:10;42.63;;;31.27;;
16330;SDS011;8275;48.206;16.340;2024-01-10T07:38:39;43.63;;;29.30;;
16330;SDS011;8275;48.206;16.340;2024-01-10T07:41:07;48.17;;;28.00;;
16330;SDS011;8275;48.206;16.340;2024-01-10T07:43:38;48.20;;;30.77;;
16330;SDS011;8275;48.206;16.340;2024-01-10T07:46:08;47.60;;;31.40;;
16330;SDS011;8275;48.206;16.340;2024-01-10T07:48:37;44.67;;;29.93;;
16330;SDS011;8275;48.206;16.340;2024-01-10T07:51:06;38.87;;;29.67;;
16330;SDS011;8275;48.206;16.340;2024-01-10T07:53:34;48.07;;;30.67;;
16330;SDS011;8275;48.206;16.340;2024-01-10T07:56:04;49.40;;;34.67;;
16330;SDS011;8275;48.206;16.340;2024-01-10T07:58:33;36.60;;;29.20;;
16330;SDS011;8275;48.206;16.340;2024-01-10T08:01:01;46.63;;;29.17;;
16330;SDS011;8275;48.206;16.340;2024-01-10T08:03:32;45.17;;;29.80;;
16330;SDS011;8275;48.206;16.340;2024-01-10T08:06:01;44.37;;;30.40;;
16330;SDS011;8275;48.206;16.340;2024-01-10T08:08:37;44.93;;;26.83;;
16330;SDS011;8275;48.206;16.340;2024-01-10T08:11:05;38.97;;;28.33;;
16330;SDS011;8275;48.206;16.340;2024-01-10T08:13:34;45.73;;;31.57;;
16330;SDS011;8275;48.206;16.340;2024-01-10T08:16:03;41.63;;;29.20;;
16330;SDS011;8275;48.206;16.340;2024-01-10T08:18:36;40.97;;;27.60;;
16330;SDS011;8275;48.206;16.340;2024-01-10T08:21:05;37.97;;;27.80;;
16330;SDS011;8275;48.206;16.340;2024-01-10T08:23:33;45.50;;;31.83;;
16330;SDS011;8275;48.206;16.340;2024-01-10T08:26:02;43.13;;;30.73;;
16330;SDS011;8275;48.206;16.340;2024-01-10T08:28:34;44.23;;;31.57;;
16330;SDS011;8275;48.206;16.340;2024-01-10T08:31:03;38.90;;;31.77;;
16330;SDS011;8275;48.206;16.340;2024-01-10T08:33:32;57.90;;;30.13;;
16330;SDS011;8275;48.206;16.340;2024-01-10T08:36:02;43.63;;;30.27;;
16330;SDS011;8275;48.206;16.340;2024-01-10T08:38:31;50.20;;;29.90;;
16330;SDS011;8275;48.206;16.340;2024-01-10T08:41:01;37.03;;;30.30;;
16330;SDS011;8275;48.206;16.340;2024-01-10T08:43:30;33.17;;;26.83;;
16330;SDS011;8275;48.206;16.340;2024-01-10T08:45:59;46.30;;;29.50;;
16330;SDS011;8275;48.206;16.340;2024-01-10T08:48:28;44.23;;;28.63;;
16330;SDS011;8275;48.206;16.340;2024-01-10T08:50:57;38.43;;;28.77;;
16330;SDS011;8275;48.206;16.340;2024-01-10T08:53:26;41.70;;;29.77;;
16330;SDS011;8275;48.206;16.340;2024-01-10T08:55:55;48.77;;;30.57;;
16330;SDS011;8275;48.206;16.340;2024-01-10T08:58:24;40.73;;;30.87;;
16330;SDS011;8275;48.206;16.340;2024-01-10T09:00:52;51.27;;;29.87;;
16330;SDS011;8275;48.206;16.340;2024-01-10T09:03:21;42.83;;;31.93;;
16330;SDS011;8275;48.206;16.340;2024-01-10T09:05:50;52.80;;;31.13;;
16330;SDS011;8275;48.206;16.340;2024-01-10T09:08:34;41.20;;;29.27;;
16330;SDS011;8275;48.206;16.340;2024-01-10T09:11:03;47.67;;;32.27;;
16330;SDS011;8275;48.206;16.340;2024-01-10T09:13:32;39.53;;;29.27;;
16330;SDS011;8275;48.206;16.340;2024-01-10T09:16:01;44.97;;;30.17;;
16330;SDS011;8275;48.206;16.340;2024-01-10T09:18:29;45.83;;;30.93;;
16330;SDS011;8275;48.206;16.340;2024-01-10T09:20:58;43.63;;;30.63;;
16330;SDS011;8275;48.206;16.340;2024-01-10T09:23:27;45.80;;;30.13;;
16330;SDS011;8275;48.206;16.340;2024-01-10T09:25:57;44.67;;;29.07;;
16330;SDS011;8275;48.206;16.340;2024-01-10T09:28:25;46.57;;;29.97;;
16330;SDS011;8275;48.206;16.340;2024-01-10T09:30:54;42.43;;;28.67;;
16330;SDS011;8275;48.206;16.340;2024-01-10T09:33:22;43.47;;;32.83;;
16330;SDS011;8275;48.206;16.340;2024-01-10T09:35:51;43.20;;;30.83;;
16330;SDS011;8275;48.206;16.340;2024-01-10T09:38:23;41.63;;;30.23;;
16330;SDS011;8275;48.206;16.340;2024-01-10T09:40:51;38.57;;;29.77;;
16330;SDS011;8275;48.206;16.340;2024-01-10T09:43:26;41.63;;;29.97;;
16330;SDS011;8275;48.206;16.340;2024-01-10T09:45:57;44.83;;;30.53;;
16330;SDS011;8275;48.206;16.340;2024-01-10T09:48:29;36.80;;;30.17;;
16330;SDS011;8275;48.206;16.340;2024-01-10T09:50:58;48.70;;;30.37;;
16330;SDS011;8275;48.206;16.340;2024-01-10T09:53:27;35.93;;;27.57;;
16330;SDS011;8275;48.206;16.340;2024-01-10T09:55:58;41.87;;;28.00;;
16330;SDS011;8275;48.206;16.340;2024-01-10T09:58:29;46.20;;;28.00;;
16330;SDS011;8275;48.206;16.340;2024-01-10T10:01:05;58.67;;;30.33;;
16330;SDS011;8275;48.206;16.340;2024-01-10T10:03:36;40.67;;;28.10;;
16330;SDS011;8275;48.206;16.340;2024-01-10T10:06:05;47.40;;;29.23;;
16330;SDS011;8275;48.206;16.340;2024-01-10T10:08:41;40.53;;;27.63;;
16330;SDS011;8275;48.206;16.340;2024-01-10T10:11:11;34.53;;;26.93;;
16330;SDS011;8275;48.206;16.340;2024-01-10T10:13:42;40.20;;;26.67;;
16330;SDS011;8275;48.206;16.340;2024-01-10T10:16:11;42.87;;;29.37;;
16330;SDS011;8275;48.206;16.340;2024-01-10T10:18:41;45.93;;;29.87;;
16330;SDS011;8275;48.206;16.340;2024-01-10T10:21:15;40.47;;;27.07;;
16330;SDS011;8275;48.206;16.340;2024-01-10T10:23:57;37.40;;;27.00;;
16330;SDS011;8275;48.206;16.340;2024-01-10T10:26:27;39.27;;;27.07;;
16330;SDS011;8275;48.206;16.340;2024-01-10T10:29:00;35.40;;;25.50;;
16330;SDS011;8275;48.206;16.340;2024-01-10T10:31:30;36.10;;;26.70;;
16330;SDS011;8275;48.206;16.340;2024-01-10T10:33:59;40.27;;;27.67;;
16330;SDS011;8275;48.206;16.340;2024-01-10T10:36:29;48.53;;;29.97;;
16330;SDS011;8275;48.206;16.340;2024-01-10T10:38:59;49.23;;;29.27;;
16330;SDS011;8275;48.206;16.340;2024-01-10T10:41:30;44.60;;;29.73;;
16330;SDS011;8275;48.206;16.340;2024-01-10T10:44:01;39.33;;;28.23;;
16330;SDS011;8275;48.206;16.340;2024-01-10T10:46:32;36.57;;;26.63;;
16330;SDS011;8275;48.206;16.340;2024-01-10T10:49:04;41.40;;;28.30;;
16330;SDS011;8275;48.206;16.340;2024-01-10T10:51:39;45.47;;;30.43;;
16330;SDS011;8275;48.206;16.340;2024-01-10T10:54:08;50.37;;;31.67;;
16330;SDS011;8275;48.206;16.340;2024-01-10T10:56:38;40.97;;;27.73;;
16330;SDS011;8275;48.206;16.340;2024-01-10T10:59:10;35.37;;;24.77;;
16330;SDS011;8275;48.206;16.340;2024-01-10T11:01:42;38.80;;;25.23;;
16330;SDS011;8275;48.206;16.340;2024-01-10T11:04:12;42.23;;;26.03;;
16330;SDS011;8275;48.206;16.340;2024-01-10T11:06:42;31.40;;;23.93;;
16330;SDS011;8275;48.206;16.340;2024-01-10T11:09:11;30.15;;;23.42;;
16330;SDS011;8275;48.206;16.340;2024-01-10T11:11:50;38.38;;;25.52;;
16330;SDS011;8275;48.206;16.340;2024-01-10T11:14:43;29.67;;;23.23;;
16330;SDS011;8275;48.206;16.340;2024-01-10T11:20:55;36.03;;;25.63;;
16330;SDS011;8275;48.206;16.340;2024-01-10T11:23:39;28.60;;;22.58;;
16330;SDS011;8275;48.206;16.340;2024-01-10T11:26:13;34.80;;;24.30;;
16330;SDS011;8275;48.206;16.340;2024-01-10T11:28:43;26.88;;;20.48;;
16330;SDS011;8275;48.206;16.340;2024-01-10T11:31:14;25.98;;;21.65;;
16330;SDS011;8275;48.206;16.340;2024-01-10T11:33:43;28.80;;;21.23;;
16330;SDS011;8275;48.206;16.340;2024-01-10T11:36:17;28.23;;;20.88;;
16330;SDS011;8275;48.206;16.340;2024-01-10T11:38:54;32.08;;;22.02;;
16330;SDS011;8275;48.206;16.340;2024-01-10T11:41:27;23.50;;;20.60;;
16330;SDS011;8275;48.206;16.340;2024-01-10T11:46:58;31.02;;;19.13;;
16330;SDS011;8275;48.206;16.340;2024-01-10T11:49:27;20.65;;;16.55;;
16330;SDS011;8275;48.206;16.340;2024-01-10T11:51:57;24.75;;;20.30;;
16330;SDS011;8275;48.206;16.340;2024-01-10T11:54:35;25.40;;;19.63;;
16330;SDS011;8275;48.206;16.340;2024-01-10T11:57:11;32.78;;;20.95;;
16330;SDS011;8275;48.206;16.340;2024-01-10T11:59:43;26.70;;;17.95;;
16330;SDS011;8275;48.206;16.340;2024-01-10T12:02:14;28.48;;;19.77;;
16330;SDS011;8275;48.206;16.340;2024-01-10T12:04:44;27.65;;;20.23;;
16330;SDS011;8275;48.206;16.340;2024-01-10T12:07:15;31.27;;;21.48;;
16330;SDS011;8275;48.206;16.340;2024-01-10T12:09:46;25.17;;;17.88;;
16330;SDS011;8275;48.206;16.340;2024-01-10T12:12:15;25.48;;;17.67;;
16330;SDS011;8275;48.206;16.340;2024-01-10T12:14:43;23.17;;;17.27;;
16330;SDS011;8275;48.206;16.340;2024-01-10T12:17:13;21.90;;;16.58;;
16330;SDS011;8275;48.206;16.340;2024-01-10T12:19:43;22.67;;;18.88;;
16330;SDS011;8275;48.206;16.340;2024-01-10T12:22:15;23.65;;;16.13;;
16330;SDS011;8275;48.206;16.340;2024-01-10T12:24:44;20.20;;;17.33;;
16330;SDS011;8275;48.206;16.340;2024-01-10T12:27:18;24.27;;;17.02;;
16330;SDS011;8275;48.206;16.340;2024-01-10T12:29:49;20.63;;;15.05;;
16330;SDS011;8275;48.206;16.340;2024-01-10T12:32:21;19.92;;;15.95;;
16330;SDS011;8275;48.206;16.340;2024-01-10T12:34:57;22.55;;;17.40;;
16330;SDS011;8275;48.206;16.340;2024-01-10T12:37:28;20.15;;;16.95;;
16330;SDS011;8275;48.206;16.340;2024-01-10T12:39:56;19.17;;;15.95;;
16330;SDS011;8275;48.206;16.340;2024-01-10T12:42:25;22.13;;;18.15;;
16330;SDS011;8275;48.206;16.340;2024-01-10T12:44:53;27.95;;;17.98;;
16330;SDS011;8275;48.206;16.340;2024-01-10T12:47:24;22.50;;;17.45;;
16330;SDS011;8275;48.206;16.340;2024-01-10T12:49:53;23.98;;;17.17;;
16330;SDS011;8275;48.206;16.340;2024-01-10T12:52:22;24.33;;;17.80;;
16330;SDS011;8275;48.206;16.340;2024-01-10T12:54:51;22.98;;;15.38;;
16330;SDS011;8275;48.206;16.340;2024-01-10T12:57:20;27.88;;;18.38;;
16330;SDS011;8275;48.206;16.340;2024-01-10T12:59:50;23.20;;;16.45;;
16330;SDS011;8275;48.206;16.340;2024-01-10T13:02:19;22.80;;;20.00;;
16330;SDS011;8275;48.206;16.340;2024-01-10T13:04:49;24.17;;;18.63;;
16330;SDS011;8275;48.206;16.340;2024-01-10T13:07:18;25.73;;;19.67;;
16330;SDS011;8275;48.206;16.340;2024-01-10T13:09:47;23.70;;;20.77;;
16330;SDS011;8275;48.206;16.340;2024-01-10T13:12:16;25.95;;;17.33;;
16330;SDS011;8275;48.206;16.340;2024-01-10T13:14:44;28.25;;;19.92;;
16330;SDS011;8275;48.206;16.340;2024-01-10T13:17:13;25.10;;;17.98;;
16330;SDS011;8275;48.206;16.340;2024-01-10T13:19:42;24.33;;;18.67;;
16330;SDS011;8275;48.206;16.340;2024-01-10T13:22:16;20.98;;;18.00;;
16330;SDS011;8275;48.206;16.340;2024-01-10T13:24:46;28.58;;;21.13;;
16330;SDS011;8275;48.206;16.340;2024-01-10T13:27:14;22.35;;;18.58;;
16330;SDS011;8275;48.206;16.340;2024-01-10T13:29:47;52.70;;;23.52;;
16330;SDS011;8275;48.206;16.340;2024-01-10T13:32:15;24.10;;;20.05;;
16330;SDS011;8275;48.206;16.340;2024-01-10T13:34:44;22.73;;;17.05;;
16330;SDS011;8275;48.206;16.340;2024-01-10T13:37:12;25.27;;;20.27;;
16330;SDS011;8275;48.206;16.340;2024-01-10T13:39:42;30.08;;;21.52;;
16330;SDS011;8275;48.206;16.340;2024-01-10T13:42:10;24.00;;;19.67;;
16330;SDS011;8275;48.206;16.340;2024-01-10T13:44:40;38.75;;;19.00;;
16330;SDS011;8275;48.206;16.340;2024-01-10T13:47:08;23.48;;;18.05;;
16330;SDS011;8275;48.206;16.340;2024-01-10T13:49:37;25.35;;;18.25;;
16330;SDS011;8275;48.206;16.340;2024-01-10T13:52:07;24.50;;;17.80;;
16330;SDS011;8275;48.206;16.340;2024-01-10T13:54:36;27.30;;;17.17;;
16330;SDS011;8275;48.206;16.340;2024-01-10T13:57:06;32.60;;;18.73;;
16330;SDS011;8275;48.206;16.340;2024-01-10T13:59:34;24.80;;;17.67;;
16330;SDS011;8275;48.206;16.340;2024-01-10T14:02:03;25.73;;;18.77;;
16330;SDS011;8275;48.206;16.340;2024-01-10T14:04:32;23.52;;;19.00;;
16330;SDS011;8275;48.206;16.340;2024-01-10T14:07:01;25.50;;;17.30;;
16330;SDS011;8275;48.206;16.340;2024-01-10T14:09:30;19.90;;;16.13;;
16330;SDS011;8275;48.206;16.340;2024-01-10T14:11:59;19.57;;;15.23;;
16330;SDS011;8275;48.206;16.340;2024-01-10T14:14:29;22.57;;;16.97;;
16330;SDS011;8275;48.206;16.340;2024-01-10T14:16:58;20.00;;;15.93;;
16330;SDS011;8275;48.206;16.340;2024-01-10T14:19:26;18.70;;;16.70;;
16330;SDS011;8275;48.206;16.340;2024-01-10T14:21:55;21.40;;;16.10;;
16330;SDS011;8275;48.206;16.340;2024-01-10T14:24:23;25.77;;;18.23;;
16330;SDS011;8275;48.206;16.340;2024-01-10T14:26:52;23.63;;;17.00;;
16330;SDS011;8275;48.206;16.340;2024-01-10T14:29:21;22.80;;;17.30;;
16330;SDS011;8275;48.206;16.340;2024-01-10T14:31:51;21.23;;;16.30;;
16330;SDS011;8275;48.206;16.340;2024-01-10T14:34:39;21.50;;;18.03;;
16330;SDS011;8275;48.206;16.340;2024-01-10T14:37:08;25.17;;;17.73;;
16330;SDS011;8275;48.206;16.340;2024-01-10T14:39:37;18.80;;;16.70;;
16330;SDS011;8275;48.206;16.340;2024-01-10T14:42:06;23.37;;;15.37;;